createdAt,value
2022-09-12T00:00:51.583Z,101468.88
2022-09-12T00:05:54.186Z,101471.41
2022-09-12T00:10:56.717Z,101478.88
2022-09-12T00:16:00.976Z,101473.34
2022-09-12T00:21:05.672Z,101472.72
2022-09-12T00:26:08.594Z,101464.81
2022-09-12T00:31:14.332Z,101462.97
2022-09-12T00:36:19.432Z,101453.81
2022-09-12T00:41:24.244Z,101451.44
2022-09-12T00:46:34.971Z,101415.78
2022-09-12T00:51:38.444Z,101445.31
2022-09-12T00:56:44.784Z,101444.97
2022-09-12T01:01:51.913Z,101434.41
2022-09-12T01:06:57.256Z,101432.72
2022-09-12T01:12:00.663Z,101431.44
2022-09-12T01:17:04.784Z,101437.22
2022-09-12T01:22:26.057Z,101434.44
2022-09-12T01:27:43.004Z,101426.78
2022-09-12T01:33:00.620Z,101416.13
2022-09-12T01:38:12.419Z,101397.00
2022-09-12T01:43:26.629Z,101404.91
2022-09-12T01:48:35.743Z,101402.72
2022-09-12T01:53:43.943Z,101407.72
2022-09-12T01:58:51.786Z,101398.16
2022-09-12T02:04:01.639Z,101389.97
2022-09-12T02:09:09.948Z,101383.53
2022-09-12T02:14:16.502Z,101333.22
2022-09-12T02:19:23.930Z,101380.72
2022-09-12T02:24:31.291Z,101380.00
2022-09-12T02:29:33.917Z,101381.53
2022-09-12T02:34:49.295Z,101382.78
2022-09-12T02:39:55.107Z,101371.38
2022-09-12T02:44:58.365Z,101369.38
2022-09-12T02:50:02.574Z,101365.88
2022-09-12T02:55:07.051Z,101365.34
2022-09-12T03:00:10.658Z,101361.13
2022-09-12T03:05:21.991Z,101370.66
2022-09-12T03:10:33.225Z,101370.13
2022-09-12T03:15:47.528Z,101362.78
2022-09-12T03:21:01.648Z,101360.59
2022-09-12T03:26:08.147Z,101361.22
2022-09-12T03:31:16.801Z,101329.13
2022-09-12T03:36:24.136Z,101349.69
2022-09-12T03:41:26.651Z,101346.22
2022-09-12T03:46:29.181Z,101343.56
2022-09-12T03:51:33.051Z,101346.69
2022-09-12T03:56:37.055Z,101346.22
2022-09-12T04:01:40.700Z,101337.28
2022-09-12T04:06:45.307Z,101330.50
2022-09-12T04:11:47.918Z,101335.09
2022-09-12T04:16:50.472Z,101326.88
2022-09-12T04:21:54.577Z,101331.31
2022-09-12T04:26:57.137Z,101328.47
2022-09-12T04:31:59.750Z,101319.75
2022-09-12T04:37:03.703Z,101323.25
2022-09-12T04:42:06.801Z,101322.81
2022-09-12T04:47:09.376Z,101320.66
2022-09-12T04:52:13.279Z,101323.25
2022-09-12T04:57:15.803Z,101308.72
2022-09-12T05:02:18.521Z,101305.63
2022-09-12T05:07:22.461Z,101308.06
2022-09-12T05:12:25.147Z,101306.94
2022-09-12T05:17:29.924Z,101311.19
2022-09-12T05:22:33.799Z,101302.63
2022-09-12T05:27:36.331Z,101308.97
2022-09-12T05:32:38.924Z,101303.16
2022-09-12T05:37:44.043Z,101307.09
2022-09-12T05:42:46.601Z,101297.16
2022-09-12T05:47:49.544Z,101308.94
2022-09-12T05:52:54.833Z,101298.34
2022-09-12T05:57:57.373Z,101319.81
2022-09-12T06:02:59.891Z,101322.84
2022-09-12T06:08:03.929Z,101332.19
2022-09-12T06:13:06.472Z,101326.41
2022-09-12T06:18:09.009Z,101331.16
2022-09-12T06:23:12.895Z,101332.38
2022-09-12T06:28:15.435Z,101329.63
2022-09-12T06:33:17.983Z,101327.66
2022-09-12T06:38:21.879Z,101332.75
2022-09-12T06:43:24.435Z,101329.13
2022-09-12T06:48:27.615Z,101339.84
2022-09-12T06:53:33.391Z,101331.31
2022-09-12T06:58:37.071Z,101318.94
2022-09-12T07:03:40.601Z,101332.78
2022-09-12T07:08:44.635Z,101337.22
2022-09-12T07:13:49.447Z,101334.06
2022-09-12T07:18:53.265Z,101338.06
2022-09-12T07:23:58.089Z,101327.31
2022-09-12T07:29:25.143Z,101327.81
2022-09-12T07:34:23.786Z,101321.69
2022-09-12T07:39:27.722Z,101323.97
2022-09-12T07:44:30.669Z,101332.34
2022-09-12T07:49:33.336Z,101325.03
2022-09-12T07:54:37.301Z,101331.22
2022-09-12T07:59:52.606Z,101326.16
2022-09-12T08:04:55.647Z,101335.75
2022-09-12T08:10:00.329Z,101337.66
2022-09-12T08:15:03.136Z,101335.78
2022-09-12T08:20:06.458Z,101329.59
2022-09-12T08:25:11.255Z,101327.03
2022-09-12T08:30:14.895Z,101328.72
2022-09-12T08:35:17.533Z,101327.34
2022-09-12T08:40:21.580Z,101309.47
2022-09-12T08:45:30.495Z,101320.72
2022-09-12T08:50:33.424Z,101324.97
2022-09-12T08:55:41.108Z,101332.63
2022-09-12T09:00:53.894Z,101338.84
2022-09-12T09:06:03.900Z,101327.72
2022-09-12T09:11:23.085Z,101322.22
2022-09-12T09:16:30.823Z,101331.13
2022-09-12T09:21:40.271Z,101325.66
2022-09-12T09:26:50.275Z,101325.69
2022-09-12T09:31:55.856Z,101314.38
2022-09-12T09:37:08.496Z,101314.91
2022-09-12T09:42:28.974Z,101300.06
2022-09-12T09:47:31.674Z,101304.19
2022-09-12T09:52:36.362Z,101304.84
2022-09-12T09:57:43.368Z,101296.50
2022-09-12T10:02:59.916Z,101288.53
2022-09-12T10:08:11.119Z,101284.59
2022-09-12T10:13:25.840Z,101285.44
2022-09-12T10:18:43.068Z,101273.81
2022-09-12T10:23:47.232Z,101264.31
2022-09-12T10:28:54.743Z,101260.50
2022-09-12T10:33:59.565Z,101251.16
2022-09-12T10:39:03.729Z,101258.47
2022-09-12T10:44:15.731Z,101261.78
2022-09-12T10:49:31.151Z,101242.69
2022-09-12T10:54:34.394Z,101240.47
2022-09-12T10:59:58.655Z,101243.25
2022-09-12T11:05:08.910Z,101212.16
2022-09-12T11:10:32.031Z,101232.63
2022-09-12T11:16:06.670Z,101225.81
2022-09-12T11:21:20.897Z,101229.22
2022-09-12T11:26:38.279Z,101213.81
2022-09-12T11:32:17.569Z,101203.00
2022-09-12T11:37:37.352Z,101201.72
2022-09-12T11:42:41.687Z,101188.31
2022-09-12T11:47:50.076Z,101170.94
2022-09-12T11:52:54.238Z,101185.91
2022-09-12T11:57:58.861Z,101190.84
2022-09-12T12:03:09.952Z,101185.28
2022-09-12T12:08:14.505Z,101181.28
2022-09-12T12:13:22.302Z,101184.97
2022-09-12T12:18:28.024Z,101167.63
2022-09-12T12:23:33.403Z,101171.31
2022-09-12T12:28:59.321Z,101157.31
2022-09-12T12:34:19.802Z,101164.69
2022-09-12T12:39:56.156Z,101158.00
2022-09-12T12:44:59.378Z,101146.00
2022-09-12T12:50:07.090Z,101150.84
2022-09-12T12:55:16.475Z,101148.88
2022-09-12T13:00:33.467Z,101146.06
2022-09-12T13:05:43.389Z,101133.97
2022-09-12T13:10:51.311Z,101122.94
2022-09-12T13:15:54.583Z,101118.44
2022-09-12T13:21:10.180Z,101106.34
2022-09-12T13:26:14.676Z,101110.00
2022-09-12T13:31:25.223Z,101100.28
2022-09-12T13:37:04.778Z,101108.50
2022-09-12T13:42:37.068Z,101096.06
2022-09-12T13:47:43.095Z,101091.22
2022-09-12T13:52:50.952Z,101087.22
2022-09-12T13:58:00.492Z,101065.00
2022-09-12T14:03:37.404Z,101077.22
2022-09-12T14:08:40.794Z,101072.91
2022-09-12T14:13:45.979Z,101064.84
2022-09-12T14:18:49.901Z,101059.31
2022-09-12T14:23:53.128Z,101052.69
2022-09-12T14:28:57.561Z,101039.31
2022-09-12T14:34:11.178Z,101034.53
2022-09-12T14:39:22.931Z,101030.56
2022-09-12T14:44:28.447Z,101022.13
2022-09-12T14:49:35.375Z,101016.25
2022-09-12T14:54:42.400Z,101020.34
2022-09-12T14:59:46.298Z,101008.78
2022-09-12T15:04:50.188Z,100997.69
2022-09-12T15:09:53.130Z,101002.72
2022-09-12T15:15:01.485Z,101005.09
2022-09-12T15:20:05.218Z,101008.53
2022-09-12T15:25:08.878Z,100990.97
2022-09-12T15:30:14.303Z,100954.59
2022-09-12T15:35:19.327Z,100975.47
2022-09-12T15:40:21.923Z,100984.94
2022-09-12T15:45:28.444Z,100979.03
2022-09-12T15:50:31.809Z,100959.34
2022-09-12T15:55:34.663Z,100962.09
2022-09-12T16:00:39.048Z,100958.56
2022-09-12T16:05:41.635Z,100940.66
2022-09-12T16:10:44.912Z,100940.66
2022-09-12T16:15:48.916Z,100928.72
2022-09-12T16:20:53.211Z,100931.41
2022-09-12T16:25:59.899Z,100910.53
2022-09-12T16:31:06.470Z,100928.06
2022-09-12T16:36:10.771Z,100927.94
2022-09-12T16:41:16.578Z,100918.69
2022-09-12T16:46:23.166Z,100917.53
2022-09-12T16:51:28.141Z,100913.03
2022-09-12T16:56:30.764Z,100899.56
2022-09-12T17:01:35.193Z,100904.28
2022-09-12T17:06:37.775Z,100898.56
2022-09-12T17:11:40.442Z,100886.97
2022-09-12T17:16:51.417Z,100872.00
2022-09-12T17:21:55.279Z,100851.34
2022-09-12T17:26:59.378Z,100851.03
2022-09-12T17:32:04.114Z,100494.13
2022-09-12T17:37:10.057Z,100549.53
2022-09-12T17:42:39.688Z,100517.47
2022-09-12T17:48:19.198Z,100686.63
2022-09-12T17:53:57.319Z,100472.97
2022-09-12T17:59:23.149Z,100901.50
2022-09-12T18:04:30.695Z,100711.41
2022-09-12T18:09:33.511Z,100533.00
2022-09-12T18:14:36.691Z,100754.78
2022-09-12T18:25:46.599Z,100668.50
2022-09-12T18:30:49.612Z,100847.03
2022-09-12T18:35:54.211Z,100879.97
2022-09-12T18:41:39.533Z,100854.56
2022-09-12T18:47:04.091Z,100601.81
2022-09-12T18:52:20.596Z,100494.72
2022-09-12T19:03:20.062Z,100582.41
2022-09-12T19:14:15.267Z,100398.72
2022-09-12T19:19:20.569Z,100785.59
2022-09-12T19:24:25.583Z,100572.00
2022-09-12T19:29:33.392Z,100837.44
2022-09-12T19:34:57.939Z,100845.97
2022-09-12T19:40:07.464Z,100710.72
2022-09-12T19:45:21.373Z,100408.06
2022-09-12T19:50:24.727Z,100576.50
2022-09-12T19:55:29.306Z,100841.81
2022-09-12T20:00:32.342Z,100489.34
2022-09-12T20:05:42.738Z,100633.38
2022-09-12T20:10:47.211Z,100830.34
2022-09-12T20:15:51.385Z,100684.47
2022-09-12T20:20:54.549Z,100346.13
2022-09-12T20:26:04.149Z,100787.41
2022-09-12T20:31:17.493Z,100784.69
2022-09-12T20:36:37.076Z,100784.22
2022-09-12T20:41:45.974Z,100611.94
2022-09-12T20:46:49.443Z,100367.16
2022-09-12T20:51:52.306Z,100724.22
2022-09-12T20:56:57.046Z,100612.91
2022-09-12T21:02:00.137Z,100779.94
2022-09-12T21:07:05.714Z,100619.66
2022-09-12T21:12:09.978Z,100752.66
2022-09-12T21:17:16.498Z,100549.94
2022-09-12T21:22:21.726Z,100754.56
2022-09-12T21:27:25.826Z,100742.97
2022-09-12T21:32:34.719Z,100581.97
2022-09-12T21:37:37.926Z,100759.06
2022-09-12T21:42:42.065Z,100752.75
2022-09-12T21:47:44.842Z,100758.06
2022-09-12T21:52:47.642Z,100729.91
2022-09-12T21:57:51.797Z,100589.59
2022-09-12T22:02:54.566Z,100756.09
2022-09-12T22:07:57.287Z,100733.41
2022-09-12T22:13:01.471Z,100710.59
2022-09-12T22:18:04.193Z,100770.28
2022-09-12T22:23:27.188Z,100798.19
2022-09-12T22:28:32.143Z,100799.69
2022-09-12T22:33:34.952Z,100694.13
2022-09-12T22:38:37.913Z,100522.03
2022-09-12T22:43:42.579Z,100692.94
2022-09-12T22:48:47.074Z,100610.13
2022-09-12T22:53:49.757Z,100726.69
2022-09-12T22:58:55.143Z,100792.56
2022-09-12T23:03:58.084Z,100791.34
2022-09-12T23:09:00.729Z,100786.06
2022-09-12T23:14:06.596Z,100701.66
2022-09-12T23:19:09.280Z,100718.28
2022-09-12T23:24:11.989Z,100688.94
2022-09-12T23:29:16.109Z,100760.34
2022-09-12T23:34:19.027Z,100646.31
2022-09-12T23:39:21.672Z,100701.88
2022-09-12T23:44:34.705Z,100755.97
2022-09-12T23:49:38.982Z,100723.19
2022-09-12T23:54:41.741Z,100549.84
2022-09-12T23:59:45.763Z,100651.97
